札幌/千歳 の空港の天気 - METARとTAF

新千歳空港 ( RJCC / CTS ) - 北海道千歳市 (札幌市近郊)
飛行場実況気象(Metar)
観測時間06/04 11:30 JST (06/04 02:30 UTC)
風向・風速南 9m/s
視程10km以上
天気現象
少しの雲 雲底高度 910m
気温22℃
湿度50%
気圧1005hPa
METARRJCC 040230Z 17018KT 9999 FEW030 BKN/// 22/11 Q1005
過去の天気等 Google飛行場航空写真 Wunderground天気予報

過去48時間のMETAR

飛行場予報(TAF)
発表時間: 6/04 08:05 JST (6/03 23:05 UTC)
予報対象時間: 4日9時 JST ~ 5日15時 JST
風向・風速南 7m/s
視程10km以上
少しの雲 雲底高度 910m
4日15時 JST ~ 4日17時 JST に徐々に
少しの雲 雲底高度 90m
全天の8割程度の雲 雲底高度 150m
4日18時 JST ~ 4日21時 JST に一時的に
視程3000m
天気現象弱いしゅう雨 もや
4日21時 JST ~ 5日3時 JST に一時的に
視程1500m
天気現象弱いしゅう雨 もや
少しの雲 雲底高度 30m
全天の8割程度の雲 雲底高度 90m
少しの積乱雲 雲底高度 760m
5日3時 JST ~ 5日9時 JST に一時的に
視程700m
天気現象
全天を覆う雲 鉛直視程 30m
5日9時 JST ~ 5日12時 JST に徐々に
少しの雲 雲底高度 300m
全天の8割程度の雲 雲底高度 910m
TAF RJCC 032305Z 0400/0506 18014KT 9999 FEW030
BECMG 0406/0408 FEW003 BKN005
TEMPO 0409/0412 3000 -SHRA BR
TEMPO 0412/0418 1500 -SHRA BR FEW001 BKN003 FEW025CB
TEMPO 0418/0500 0700 FG VV001
BECMG 0500/0503 FEW010 BKN030
日本の空港のMETAR・TAFへのリンク

RJTT 東京国際空港
RJAA 新東京国際空港
RJBB 関西国際空港
RJOO 大阪空港
RJGG 中部国際空港
RJCC 新千歳空港
RJFF 福岡空港
ROAH 那覇空港


RJEC 旭川空港
RJCH 函館空港
RJCK 釧路空港
RJCM 女満別空港
RJCB 帯広空港
RJSA 青森空港
RJSS 仙台空港
RJSK 秋田空港
RJSF 福島空港
RJAH 茨城空港
RJSN 新潟空港
RJNT 富山空港
RJNK 小松飛行場
RJNS 静岡空港
RJOH 美保飛行場
RJOC 出雲空港
RJOB 岡山空港
RJOA 広島空港
RJOI 岩国飛行場
RJOT 高松空港
RJOM 松山空港
RJOK 高知空港
RJFR 北九州空港
RJFT 熊本空港
RJFU 長崎空港
RJFS 佐賀空港
RJFO 大分空港
RJFM 宮崎空港
RJFK 鹿児島空港
ROIG 石垣島空港
RJTY 横田飛行場
ROTM 普天間飛行場
RODN 嘉手納飛行場